createdAt,value
2018-12-12T00:00:37.116Z,72.67
2018-12-12T00:03:00.227Z,71.77
2018-12-12T00:05:23.335Z,70.55
2018-12-12T00:07:46.473Z,71.10
2018-12-12T00:10:11.555Z,71.71
2018-12-12T00:12:34.730Z,70.29
2018-12-12T00:14:57.837Z,71.44
2018-12-12T00:17:20.991Z,70.41
2018-12-12T00:19:44.137Z,71.03
2018-12-12T00:22:07.291Z,69.65
2018-12-12T00:24:30.407Z,70.27
2018-12-12T00:26:53.601Z,69.58
2018-12-12T00:29:16.717Z,70.81
2018-12-12T00:31:39.846Z,70.21
2018-12-12T00:34:02.951Z,69.54
2018-12-12T00:36:26.155Z,71.15
2018-12-12T00:38:49.282Z,70.71
2018-12-12T00:41:12.437Z,69.66
2018-12-12T00:43:35.576Z,69.71
2018-12-12T00:45:58.670Z,68.72
2018-12-12T00:48:21.818Z,69.01
2018-12-12T00:50:44.914Z,69.68
2018-12-12T00:53:08.086Z,69.30
2018-12-12T00:55:31.229Z,68.77
2018-12-12T00:57:54.343Z,68.85
2018-12-12T01:00:17.902Z,68.75
2018-12-12T01:02:41.001Z,70.84
2018-12-12T01:05:05.282Z,69.22
2018-12-12T01:07:28.394Z,69.47
2018-12-12T01:09:51.516Z,69.35
2018-12-12T01:12:14.918Z,70.21
2018-12-12T01:14:38.059Z,69.16
2018-12-12T01:17:01.176Z,69.07
2018-12-12T01:19:24.305Z,69.25
2018-12-12T01:21:47.458Z,69.63
2018-12-12T01:24:10.664Z,71.45
2018-12-12T01:26:33.767Z,70.77
2018-12-12T01:28:56.891Z,72.53
2018-12-12T01:31:20.025Z,71.66
2018-12-12T01:33:43.122Z,70.83
2018-12-12T01:36:06.302Z,71.08
2018-12-12T01:38:29.442Z,71.65
2018-12-12T01:40:52.557Z,71.68
2018-12-12T01:43:15.730Z,72.71
2018-12-12T01:45:38.858Z,72.37
2018-12-12T01:48:02.056Z,72.61
2018-12-12T01:50:25.179Z,73.35
2018-12-12T01:52:48.316Z,72.22
2018-12-12T01:55:11.477Z,73.52
2018-12-12T01:57:34.587Z,72.53
2018-12-12T01:59:57.815Z,74.15
2018-12-12T02:02:21.036Z,73.82
2018-12-12T02:04:44.119Z,72.18
2018-12-12T02:07:07.260Z,72.11
2018-12-12T02:09:30.360Z,72.20
2018-12-12T02:11:53.540Z,72.71
2018-12-12T02:14:16.673Z,70.79
2018-12-12T02:16:39.786Z,72.04
2018-12-12T02:19:03.041Z,72.75
2018-12-12T02:21:26.133Z,70.98
2018-12-12T02:23:49.288Z,71.14
2018-12-12T02:26:12.472Z,71.23
2018-12-12T02:28:35.571Z,72.78
2018-12-12T02:30:58.761Z,71.43
2018-12-12T02:33:21.885Z,71.89
2018-12-12T02:35:45.043Z,71.57
2018-12-12T02:38:08.258Z,70.73
2018-12-12T02:40:31.396Z,70.89
2018-12-12T02:42:54.533Z,71.00
2018-12-12T02:45:17.645Z,70.99
2018-12-12T02:47:40.824Z,69.92
2018-12-12T02:50:04.453Z,69.87
2018-12-12T02:52:27.570Z,69.51
2018-12-12T02:54:50.716Z,69.47
2018-12-12T02:57:13.823Z,69.64
2018-12-12T02:59:36.955Z,69.61
2018-12-12T03:02:00.075Z,69.21
2018-12-12T03:04:23.211Z,69.79
2018-12-12T03:06:46.316Z,69.62
2018-12-12T03:09:09.424Z,70.30
2018-12-12T03:11:32.545Z,70.22
2018-12-12T03:13:55.654Z,69.86
2018-12-12T03:16:18.811Z,70.02
2018-12-12T03:18:41.914Z,69.95
2018-12-12T03:21:05.061Z,69.71
2018-12-12T03:23:28.195Z,70.24
2018-12-12T03:25:51.305Z,69.12
2018-12-12T03:28:14.469Z,68.90
2018-12-12T03:30:37.593Z,69.04
2018-12-12T03:33:00.708Z,69.15
2018-12-12T03:35:23.844Z,69.05
2018-12-12T03:37:46.944Z,69.48
2018-12-12T03:40:10.160Z,69.52
2018-12-12T03:42:33.592Z,69.60
2018-12-12T03:44:56.704Z,69.59
2018-12-12T03:47:19.949Z,68.92
2018-12-12T03:49:43.048Z,69.15
2018-12-12T03:52:06.211Z,69.62
2018-12-12T03:54:29.427Z,69.87
2018-12-12T03:56:52.560Z,70.36
2018-12-12T03:59:15.659Z,70.07
2018-12-12T04:01:38.799Z,70.60
2018-12-12T04:04:01.883Z,69.94
2018-12-12T04:06:25.079Z,70.57
2018-12-12T04:08:48.179Z,69.69
2018-12-12T04:11:11.470Z,70.46
2018-12-12T04:13:34.582Z,68.91
2018-12-12T04:15:57.685Z,69.83
2018-12-12T04:18:20.806Z,69.89
2018-12-12T04:20:43.961Z,70.17
2018-12-12T04:23:07.112Z,69.40
2018-12-12T04:25:30.228Z,70.06
2018-12-12T04:27:53.397Z,70.61
2018-12-12T04:30:16.521Z,70.07
2018-12-12T04:32:39.638Z,69.90
2018-12-12T04:35:02.848Z,70.10
2018-12-12T04:37:25.985Z,69.27
2018-12-12T04:39:49.102Z,68.91
2018-12-12T04:42:12.290Z,72.21
2018-12-12T04:44:35.433Z,70.89
2018-12-12T04:46:58.561Z,70.74
2018-12-12T04:49:21.669Z,71.00
2018-12-12T04:51:45.529Z,70.99
2018-12-12T04:54:08.650Z,70.13
2018-12-12T04:56:31.761Z,71.05
2018-12-12T04:58:55.627Z,70.81
2018-12-12T05:01:18.738Z,71.49
2018-12-12T05:03:41.878Z,70.22
2018-12-12T05:06:05.042Z,71.37
2018-12-12T05:08:28.155Z,70.90
2018-12-12T05:10:51.297Z,70.96
2018-12-12T05:13:14.388Z,70.68
2018-12-12T05:15:37.574Z,70.15
2018-12-12T05:18:00.804Z,70.99
2018-12-12T05:20:23.984Z,70.27
2018-12-12T05:22:47.093Z,70.24
2018-12-12T05:25:10.241Z,69.97
2018-12-12T05:27:33.368Z,71.08
2018-12-12T05:29:56.484Z,69.83
2018-12-12T05:32:19.615Z,70.70
2018-12-12T05:34:42.732Z,70.07
2018-12-12T05:37:05.879Z,70.46
2018-12-12T05:39:29.044Z,70.77
2018-12-12T05:41:52.133Z,71.52
2018-12-12T05:44:15.260Z,70.72
2018-12-12T05:46:41.802Z,71.01
2018-12-12T05:49:03.514Z,71.29
2018-12-12T05:51:26.649Z,69.81
2018-12-12T05:53:49.762Z,70.93
2018-12-12T05:56:14.235Z,72.04
2018-12-12T05:58:37.585Z,71.04
2018-12-12T06:01:00.702Z,72.11
2018-12-12T06:03:23.890Z,72.39
2018-12-12T06:05:47.035Z,72.52
2018-12-12T06:08:10.167Z,71.70
2018-12-12T06:10:33.342Z,71.34
2018-12-12T06:12:57.925Z,71.05
2018-12-12T06:15:21.369Z,71.09
2018-12-12T06:17:44.504Z,71.72
2018-12-12T06:20:08.052Z,72.03
2018-12-12T06:22:37.338Z,71.44
2018-12-12T06:24:56.546Z,71.21
2018-12-12T06:27:19.661Z,70.87
2018-12-12T06:29:42.788Z,70.76
2018-12-12T06:32:06.055Z,71.92
2018-12-12T06:34:29.170Z,71.82
2018-12-12T06:36:52.373Z,72.44
2018-12-12T06:39:15.477Z,72.40
2018-12-12T06:41:38.605Z,73.28
2018-12-12T06:44:01.774Z,71.95
2018-12-12T06:46:26.386Z,71.89
2018-12-12T06:48:49.787Z,72.62
2018-12-12T06:51:12.894Z,71.98
2018-12-12T06:53:36.011Z,72.31
2018-12-12T06:55:59.122Z,72.18
2018-12-12T06:58:22.232Z,73.33
2018-12-12T07:00:45.405Z,72.14
2018-12-12T07:03:08.565Z,73.16
2018-12-12T07:05:31.701Z,72.33
2018-12-12T07:07:54.925Z,71.18
2018-12-12T07:10:18.078Z,72.30
2018-12-12T07:12:41.208Z,71.57
2018-12-12T07:15:04.596Z,72.62
2018-12-12T07:17:27.727Z,72.77
2018-12-12T07:19:50.822Z,72.17
2018-12-12T07:22:13.999Z,71.20
2018-12-12T07:24:37.116Z,71.27
2018-12-12T07:27:00.309Z,72.55
2018-12-12T07:29:23.403Z,72.03
2018-12-12T07:31:47.493Z,71.41
2018-12-12T07:34:10.656Z,72.69
2018-12-12T07:36:33.778Z,73.81
2018-12-12T07:38:56.921Z,71.59
2018-12-12T07:41:20.103Z,71.08
2018-12-12T07:43:43.316Z,72.76
2018-12-12T07:46:06.462Z,72.62
2018-12-12T07:48:29.608Z,72.21
2018-12-12T07:50:52.777Z,71.83
2018-12-12T07:53:15.962Z,72.11
2018-12-12T07:55:39.259Z,71.75
2018-12-12T07:58:02.339Z,70.79
2018-12-12T08:00:25.482Z,71.74
2018-12-12T08:02:48.649Z,70.53
2018-12-12T08:05:11.753Z,72.13
2018-12-12T08:07:35.215Z,72.10
2018-12-12T08:09:58.336Z,72.48
2018-12-12T08:12:21.457Z,72.15
2018-12-12T08:14:44.581Z,73.16
2018-12-12T08:17:07.695Z,71.77
2018-12-12T08:19:30.848Z,71.33
2018-12-12T08:21:53.945Z,73.00
2018-12-12T08:24:17.324Z,72.82
2018-12-12T08:26:40.431Z,72.85
2018-12-12T08:29:03.562Z,71.93
2018-12-12T08:31:26.682Z,70.65
2018-12-12T08:33:49.808Z,70.91
2018-12-12T08:36:12.966Z,71.89
2018-12-12T08:38:36.779Z,71.85
2018-12-12T08:41:00.166Z,73.31
2018-12-12T08:43:23.294Z,71.73
2018-12-12T08:45:46.406Z,72.38
2018-12-12T08:48:09.532Z,72.14
2018-12-12T08:50:32.647Z,71.83
2018-12-12T08:52:55.831Z,71.93
2018-12-12T08:55:18.979Z,73.63
2018-12-12T08:57:42.103Z,71.78
2018-12-12T09:00:05.795Z,73.93
2018-12-12T09:02:29.165Z,73.02
2018-12-12T09:04:52.267Z,71.55
2018-12-12T09:07:15.407Z,71.98
2018-12-12T09:09:38.535Z,72.78
2018-12-12T09:12:01.662Z,71.63
2018-12-12T09:14:24.854Z,71.72
2018-12-12T09:16:47.957Z,71.81
2018-12-12T09:19:11.064Z,72.34
2018-12-12T09:21:34.187Z,73.08
2018-12-12T09:23:57.291Z,72.35
2018-12-12T09:26:20.446Z,72.34
2018-12-12T09:28:44.200Z,71.04
2018-12-12T09:31:07.319Z,71.62
2018-12-12T09:33:30.473Z,71.75
2018-12-12T09:35:53.626Z,72.24
2018-12-12T09:38:16.763Z,73.13
2018-12-12T09:40:39.889Z,72.30
2018-12-12T09:43:03.006Z,71.68
2018-12-12T09:45:26.111Z,72.19
2018-12-12T09:47:49.282Z,73.18
2018-12-12T09:50:12.413Z,72.41
2018-12-12T09:52:35.553Z,71.79
2018-12-12T09:54:58.695Z,72.55
2018-12-12T09:57:21.847Z,72.89
2018-12-12T09:59:44.997Z,72.54
2018-12-12T10:02:08.128Z,72.55
2018-12-12T10:04:31.257Z,72.75
2018-12-12T10:06:54.356Z,73.31
2018-12-12T10:09:17.493Z,72.31
2018-12-12T10:11:40.665Z,73.26
2018-12-12T10:14:03.870Z,73.66
2018-12-12T10:16:26.983Z,73.19
2018-12-12T10:18:50.091Z,73.69
2018-12-12T10:21:13.249Z,72.75
2018-12-12T10:23:36.376Z,72.87
2018-12-12T10:25:59.530Z,72.69
2018-12-12T10:28:22.642Z,74.71
2018-12-12T10:30:45.766Z,75.14
2018-12-12T10:33:08.916Z,72.27
2018-12-12T10:35:32.056Z,73.56
2018-12-12T10:37:55.227Z,74.24
2018-12-12T10:40:18.349Z,72.41
2018-12-12T10:42:41.506Z,72.73
2018-12-12T10:45:06.002Z,73.55
2018-12-12T10:47:29.125Z,73.49
2018-12-12T10:49:52.266Z,73.95
2018-12-12T10:52:15.422Z,74.34
2018-12-12T10:54:38.686Z,72.90
2018-12-12T10:57:01.782Z,73.54
2018-12-12T10:59:24.886Z,72.49
2018-12-12T11:01:48.004Z,72.27
2018-12-12T11:04:11.107Z,72.28
2018-12-12T11:06:34.220Z,71.78
2018-12-12T11:08:57.358Z,72.54
2018-12-12T11:11:20.476Z,71.95
2018-12-12T11:13:43.721Z,71.30
2018-12-12T11:16:06.911Z,72.73
2018-12-12T11:18:30.024Z,71.44
2018-12-12T11:20:53.185Z,71.32
2018-12-12T11:23:16.305Z,71.77
2018-12-12T11:25:39.525Z,72.23
2018-12-12T11:28:02.646Z,72.67
2018-12-12T11:30:25.770Z,71.34
2018-12-12T11:32:48.930Z,72.73
2018-12-12T11:35:12.075Z,71.85
2018-12-12T11:37:35.204Z,71.43
2018-12-12T11:39:58.333Z,71.67
2018-12-12T11:42:21.560Z,71.80
2018-12-12T11:44:44.708Z,71.87
2018-12-12T11:47:07.829Z,72.48
2018-12-12T11:49:30.979Z,72.47
2018-12-12T11:51:54.107Z,71.61
2018-12-12T11:54:17.271Z,71.84
2018-12-12T11:56:40.398Z,72.39
2018-12-12T11:59:03.576Z,72.75
2018-12-12T12:01:26.787Z,71.87
2018-12-12T12:03:49.921Z,71.13
2018-12-12T12:06:13.052Z,71.15
2018-12-12T12:08:36.191Z,71.36
2018-12-12T12:10:59.321Z,71.76
2018-12-12T12:13:22.434Z,71.98
2018-12-12T12:15:45.557Z,70.65
2018-12-12T12:18:08.688Z,71.44
2018-12-12T12:20:31.807Z,71.19
2018-12-12T12:22:55.182Z,70.78
2018-12-12T12:25:18.345Z,70.29
2018-12-12T12:27:41.481Z,71.30
2018-12-12T12:30:06.069Z,70.54
2018-12-12T12:32:29.225Z,71.46
2018-12-12T12:34:52.327Z,70.42
2018-12-12T12:37:15.530Z,70.24
2018-12-12T12:39:38.679Z,71.05
2018-12-12T12:42:01.819Z,71.54
2018-12-12T12:44:24.950Z,71.23
2018-12-12T12:46:48.063Z,70.49
2018-12-12T12:49:11.220Z,70.23
2018-12-12T12:51:34.407Z,70.24
2018-12-12T12:53:57.543Z,69.70
2018-12-12T12:56:20.701Z,69.15
2018-12-12T12:58:43.798Z,69.59
2018-12-12T13:01:06.937Z,69.05
2018-12-12T13:03:30.059Z,69.21
2018-12-12T13:05:53.180Z,69.33
2018-12-12T13:08:16.282Z,68.88
2018-12-12T13:10:39.598Z,67.90
2018-12-12T13:13:02.800Z,68.58
2018-12-12T13:15:26.156Z,68.92
2018-12-12T13:17:49.272Z,68.29
2018-12-12T13:20:12.429Z,68.29
2018-12-12T13:22:35.572Z,67.36
2018-12-12T13:24:58.689Z,66.20
2018-12-12T13:27:21.828Z,67.22
2018-12-12T13:29:44.978Z,66.99
2018-12-12T13:32:08.114Z,67.08
2018-12-12T13:34:31.244Z,67.15
2018-12-12T13:36:54.373Z,68.28
2018-12-12T13:39:17.496Z,67.29
2018-12-12T13:41:40.646Z,67.78
2018-12-12T13:44:03.815Z,68.33
2018-12-12T13:46:26.950Z,68.05
2018-12-12T13:48:50.065Z,68.42
2018-12-12T13:51:13.198Z,68.32
2018-12-12T13:53:36.351Z,68.07
2018-12-12T13:55:59.483Z,68.25
2018-12-12T13:58:22.633Z,68.30
2018-12-12T14:00:45.747Z,68.69
2018-12-12T14:03:08.918Z,68.67
2018-12-12T14:05:32.543Z,67.93
2018-12-12T14:07:55.652Z,67.94
2018-12-12T14:10:18.841Z,68.41
2018-12-12T14:12:41.970Z,69.36
2018-12-12T14:15:05.724Z,68.95
2018-12-12T14:17:28.856Z,68.19
2018-12-12T14:19:52.002Z,68.79
2018-12-12T14:22:15.132Z,68.53
2018-12-12T14:24:38.269Z,67.95
2018-12-12T14:27:01.404Z,67.39
2018-12-12T14:29:24.550Z,68.24
2018-12-12T14:31:47.691Z,67.09
2018-12-12T14:34:10.858Z,68.43
2018-12-12T14:36:33.993Z,68.05
2018-12-12T14:38:57.104Z,69.14
2018-12-12T14:41:20.238Z,68.46
2018-12-12T14:43:43.346Z,68.43
2018-12-12T14:46:06.538Z,67.40
2018-12-12T14:48:30.359Z,67.45
2018-12-12T14:50:53.743Z,67.47
2018-12-12T14:53:16.839Z,67.51
2018-12-12T14:55:40.109Z,67.40
2018-12-12T14:58:03.221Z,67.14
2018-12-12T15:00:26.365Z,66.52
2018-12-12T15:02:49.536Z,67.21
2018-12-12T15:05:12.862Z,67.22
2018-12-12T15:07:36.073Z,66.52
2018-12-12T15:09:59.224Z,66.07
2018-12-12T15:12:22.358Z,66.25
2018-12-12T15:14:45.516Z,65.11
2018-12-12T15:17:08.647Z,65.58
2018-12-12T15:19:31.909Z,65.21
2018-12-12T15:21:55.002Z,65.02
2018-12-12T15:24:18.187Z,65.24
2018-12-12T15:26:41.329Z,65.46
2018-12-12T15:29:04.506Z,65.22
2018-12-12T15:31:27.638Z,64.97
2018-12-12T15:33:50.774Z,64.68
2018-12-12T15:36:13.889Z,64.48
2018-12-12T15:38:37.051Z,64.61
2018-12-12T15:41:00.157Z,65.07
2018-12-12T15:43:23.330Z,64.77
2018-12-12T15:45:46.460Z,64.37
2018-12-12T15:48:09.584Z,64.86
2018-12-12T15:50:32.738Z,64.79
2018-12-12T15:52:55.855Z,65.19
2018-12-12T15:55:18.986Z,64.65
2018-12-12T15:57:42.159Z,65.39
2018-12-12T16:00:06.645Z,64.79
2018-12-12T16:02:29.781Z,64.00
2018-12-12T16:04:52.910Z,64.44
2018-12-12T16:07:16.038Z,64.35
2018-12-12T16:09:39.196Z,64.99
2018-12-12T16:12:02.309Z,65.99
2018-12-12T16:14:25.484Z,65.57
2018-12-12T16:16:48.621Z,65.65
2018-12-12T16:19:11.730Z,65.44
2018-12-12T16:21:34.895Z,65.54
2018-12-12T16:23:58.005Z,67.15
2018-12-12T16:26:21.246Z,66.02
2018-12-12T16:28:44.401Z,66.15
2018-12-12T16:31:07.570Z,67.07
2018-12-12T16:33:30.679Z,66.41
2018-12-12T16:35:53.809Z,65.93
2018-12-12T16:38:16.974Z,65.51
2018-12-12T16:40:40.131Z,66.06
2018-12-12T16:43:03.248Z,66.59
2018-12-12T16:45:26.361Z,66.49
2018-12-12T16:47:49.491Z,66.29
2018-12-12T16:50:12.678Z,66.07
2018-12-12T16:52:35.812Z,66.12
2018-12-12T16:54:58.948Z,66.63
2018-12-12T16:57:22.083Z,65.97
2018-12-12T16:59:45.218Z,65.69
2018-12-12T17:02:08.377Z,65.89
2018-12-12T17:04:31.483Z,65.81
2018-12-12T17:06:54.619Z,66.38
2018-12-12T17:09:17.757Z,66.43
2018-12-12T17:11:40.883Z,66.02
2018-12-12T17:14:04.125Z,66.02
2018-12-12T17:16:27.236Z,67.42
2018-12-12T17:18:50.362Z,67.51
2018-12-12T17:21:13.543Z,67.01
2018-12-12T17:23:36.637Z,66.62
2018-12-12T17:25:59.793Z,66.69
2018-12-12T17:28:22.911Z,67.24
2018-12-12T17:30:46.034Z,66.21
2018-12-12T17:33:09.169Z,66.76
2018-12-12T17:35:32.314Z,66.50
2018-12-12T17:37:55.507Z,66.56
2018-12-12T17:40:18.662Z,67.37
2018-12-12T17:42:41.786Z,67.14
2018-12-12T17:45:05.184Z,66.92
2018-12-12T17:47:28.314Z,67.36
2018-12-12T17:49:51.493Z,67.24
2018-12-12T17:52:14.623Z,67.99
2018-12-12T17:54:37.831Z,67.33
2018-12-12T17:57:01.063Z,67.62
2018-12-12T17:59:24.235Z,68.12
2018-12-12T18:01:47.391Z,69.08
2018-12-12T18:04:10.555Z,68.35
2018-12-12T18:06:33.662Z,68.92
2018-12-12T18:08:56.828Z,69.31
2018-12-12T18:11:19.971Z,68.54
2018-12-12T18:13:43.075Z,68.54
2018-12-12T18:16:06.770Z,67.46
2018-12-12T18:18:30.123Z,69.47
2018-12-12T18:20:53.237Z,68.51
2018-12-12T18:23:16.377Z,68.40
2018-12-12T18:25:39.578Z,69.07
2018-12-12T18:28:02.756Z,70.68
2018-12-12T18:30:25.971Z,69.54
2018-12-12T18:32:49.110Z,68.85
2018-12-12T18:35:12.243Z,68.22
2018-12-12T18:37:35.534Z,68.09
2018-12-12T18:39:58.661Z,69.60
2018-12-12T18:42:21.787Z,71.12
2018-12-12T18:44:44.944Z,69.37
2018-12-12T18:47:08.079Z,68.61
2018-12-12T18:49:31.259Z,69.15
2018-12-12T18:51:54.354Z,68.72
2018-12-12T18:54:17.477Z,68.50
2018-12-12T18:56:40.638Z,68.32
2018-12-12T18:59:03.808Z,68.48
2018-12-12T19:01:26.992Z,68.91
2018-12-12T19:03:50.179Z,68.58
2018-12-12T19:06:13.363Z,69.56
2018-12-12T19:08:36.486Z,69.04
2018-12-12T19:10:59.627Z,69.74
2018-12-12T19:13:22.803Z,69.65
2018-12-12T19:15:45.926Z,69.45
2018-12-12T19:18:09.091Z,68.85
2018-12-12T19:20:32.295Z,69.54
2018-12-12T19:22:55.404Z,69.78
2018-12-12T19:25:18.543Z,69.56
2018-12-12T19:27:41.710Z,69.74
2018-12-12T19:30:07.687Z,69.55
2018-12-12T19:32:30.841Z,69.58
2018-12-12T19:34:54.023Z,68.61
2018-12-12T19:37:17.271Z,69.47
2018-12-12T19:39:40.444Z,69.21
2018-12-12T19:42:03.641Z,69.09
2018-12-12T19:44:26.766Z,69.17
2018-12-12T19:46:49.909Z,68.38
2018-12-12T19:49:13.083Z,69.22
2018-12-12T19:51:36.234Z,68.64
2018-12-12T19:53:59.334Z,69.40
2018-12-12T19:56:22.496Z,69.09
2018-12-12T19:58:45.612Z,69.72
2018-12-12T20:01:08.742Z,69.03
2018-12-12T20:03:32.001Z,69.62
2018-12-12T20:05:55.179Z,68.36
2018-12-12T20:08:18.333Z,69.49
2018-12-12T20:10:41.551Z,68.10
2018-12-12T20:13:04.770Z,69.03
2018-12-12T20:15:33.419Z,69.04
2018-12-12T20:17:56.637Z,70.08
2018-12-12T20:20:19.755Z,69.40
2018-12-12T20:22:43.003Z,68.83
2018-12-12T20:25:06.132Z,68.53
2018-12-12T20:27:29.265Z,69.58
2018-12-12T20:29:52.408Z,69.29
2018-12-12T20:32:15.542Z,69.18
2018-12-12T20:34:38.697Z,69.76
2018-12-12T20:37:01.817Z,69.12
2018-12-12T20:39:24.961Z,68.69
2018-12-12T20:41:48.165Z,70.32
2018-12-12T20:44:11.296Z,69.93
2018-12-12T20:46:34.466Z,70.56
2018-12-12T20:48:57.598Z,69.70
2018-12-12T20:51:20.765Z,69.47
2018-12-12T20:53:43.903Z,69.21
2018-12-12T20:56:07.050Z,68.38
2018-12-12T20:58:30.209Z,68.90
2018-12-12T21:00:53.339Z,69.22
2018-12-12T21:03:16.441Z,68.58
2018-12-12T21:05:39.974Z,67.72
2018-12-12T21:08:03.094Z,68.53
2018-12-12T21:10:26.250Z,67.81
2018-12-12T21:12:49.389Z,67.88
2018-12-12T21:15:12.520Z,68.44
2018-12-12T21:17:35.805Z,68.96
2018-12-12T21:19:58.968Z,68.15
2018-12-12T21:22:25.777Z,67.64
2018-12-12T21:24:48.882Z,67.53
2018-12-12T21:27:12.071Z,68.26
2018-12-12T21:29:35.271Z,68.16
2018-12-12T21:31:58.409Z,67.51
2018-12-12T21:34:21.551Z,68.02
2018-12-12T21:36:44.676Z,67.84
2018-12-12T21:39:07.893Z,68.31
2018-12-12T21:41:31.013Z,67.48
2018-12-12T21:43:54.120Z,69.52
2018-12-12T21:46:17.271Z,68.65
2018-12-12T21:48:40.386Z,68.13
2018-12-12T21:51:03.540Z,68.71
2018-12-12T21:53:26.665Z,67.90
2018-12-12T21:55:49.786Z,67.45
2018-12-12T21:58:12.939Z,67.95
2018-12-12T22:00:36.071Z,67.39
2018-12-12T22:02:59.210Z,68.35
2018-12-12T22:05:22.453Z,67.95
2018-12-12T22:07:45.534Z,68.94
2018-12-12T22:10:08.735Z,68.77
2018-12-12T22:12:31.852Z,67.86
2018-12-12T22:14:54.994Z,68.48
2018-12-12T22:17:18.193Z,67.39
2018-12-12T22:19:41.314Z,67.34
2018-12-12T22:22:04.586Z,67.98
2018-12-12T22:24:27.676Z,68.03
2018-12-12T22:26:50.793Z,67.48
2018-12-12T22:29:13.917Z,68.10
2018-12-12T22:31:37.034Z,67.31
2018-12-12T22:34:00.175Z,67.54
2018-12-12T22:36:23.298Z,67.93
2018-12-12T22:38:46.438Z,68.42
2018-12-12T22:41:09.603Z,68.25
2018-12-12T22:43:32.735Z,67.97
2018-12-12T22:45:55.871Z,67.87
2018-12-12T22:48:20.744Z,67.85
2018-12-12T22:50:44.042Z,68.31
2018-12-12T22:53:07.180Z,68.34
2018-12-12T22:55:30.318Z,68.64
2018-12-12T22:57:53.463Z,67.65
2018-12-12T23:00:22.491Z,68.01
2018-12-12T23:02:45.633Z,68.48
2018-12-12T23:05:08.794Z,67.93
2018-12-12T23:07:31.893Z,68.04
2018-12-12T23:09:55.059Z,69.01
2018-12-12T23:12:18.530Z,67.64
2018-12-12T23:14:41.684Z,68.42
2018-12-12T23:17:04.958Z,68.24
2018-12-12T23:19:28.114Z,68.46
2018-12-12T23:21:51.284Z,68.97
2018-12-12T23:24:14.404Z,68.35
2018-12-12T23:26:37.512Z,68.58
2018-12-12T23:29:00.666Z,68.70
2018-12-12T23:31:23.776Z,67.92
2018-12-12T23:33:46.877Z,68.95
2018-12-12T23:36:09.997Z,69.03
2018-12-12T23:38:33.130Z,68.04
2018-12-12T23:40:56.238Z,69.30
2018-12-12T23:43:19.339Z,68.54
2018-12-12T23:45:42.526Z,68.75
2018-12-12T23:48:05.645Z,69.11
2018-12-12T23:50:28.761Z,68.61
2018-12-12T23:52:51.889Z,68.82
2018-12-12T23:55:15.021Z,69.07
2018-12-12T23:57:38.162Z,68.29
